createdAt,value
2022-11-16T00:01:33.277Z,85597.69
2022-11-16T00:04:01.733Z,85573.00
2022-11-16T00:06:29.624Z,85597.72
2022-11-16T00:09:17.555Z,85596.34
2022-11-16T00:11:44.948Z,85559.94
2022-11-16T00:14:12.118Z,85592.16
2022-11-16T00:16:39.228Z,85564.75
2022-11-16T00:19:07.524Z,85546.94
2022-11-16T00:21:34.739Z,85549.69
2022-11-16T00:24:02.104Z,85579.16
2022-11-16T00:26:29.424Z,85572.97
2022-11-16T00:28:56.480Z,85571.56
2022-11-16T00:31:24.181Z,85570.19
2022-11-16T00:33:51.995Z,85567.47
2022-11-16T00:36:19.363Z,85551.00
2022-11-16T00:38:47.732Z,85554.44
2022-11-16T00:41:14.696Z,85550.31
2022-11-16T00:43:41.642Z,85563.31
2022-11-16T00:46:09.641Z,85555.06
2022-11-16T00:48:36.816Z,85556.47
2022-11-16T00:51:04.666Z,85559.88
2022-11-16T00:53:31.879Z,85568.16
2022-11-16T00:55:58.762Z,85564.72
2022-11-16T00:58:25.778Z,85513.97
2022-11-16T01:01:07.689Z,85560.63
2022-11-16T01:03:36.439Z,85548.94
2022-11-16T01:06:08.658Z,85539.41
2022-11-16T01:08:37.982Z,85549.63
2022-11-16T01:11:24.731Z,85545.44
2022-11-16T01:13:52.044Z,85541.38
2022-11-16T01:16:21.630Z,85535.19
2022-11-16T01:18:50.940Z,85502.97
2022-11-16T01:21:18.662Z,85494.75
2022-11-16T01:23:45.883Z,85504.34
2022-11-16T01:26:12.891Z,85511.22
2022-11-16T01:28:41.519Z,85507.88
2022-11-16T01:31:10.484Z,85514.72
2022-11-16T01:33:38.281Z,85530.50
2022-11-16T01:36:16.681Z,85523.63
2022-11-16T01:38:46.179Z,85507.16
2022-11-16T01:41:21.078Z,85479.75
2022-11-16T01:44:05.287Z,85498.97
2022-11-16T01:46:40.700Z,85492.09
2022-11-16T01:49:17.188Z,85514.03
2022-11-16T01:51:48.925Z,85511.94
2022-11-16T01:54:16.764Z,85513.31
2022-11-16T01:56:55.096Z,85503.69
2022-11-16T01:59:32.246Z,85507.13
2022-11-16T02:02:00.728Z,85499.56
2022-11-16T02:04:28.236Z,85456.44
2022-11-16T02:06:59.231Z,85503.00
2022-11-16T02:09:54.470Z,85500.25
2022-11-16T02:12:55.809Z,85498.19
2022-11-16T02:15:48.439Z,85470.16
2022-11-16T02:18:27.578Z,85492.75
2022-11-16T02:21:20.806Z,85493.47
2022-11-16T02:24:02.964Z,85494.16
2022-11-16T02:26:38.883Z,85498.25
2022-11-16T02:29:05.711Z,85500.31
2022-11-16T02:31:40.738Z,85498.94
2022-11-16T02:34:11.697Z,85474.91
2022-11-16T02:36:42.316Z,85493.41
2022-11-16T02:39:15.408Z,85501.66
2022-11-16T02:41:46.064Z,85472.91
2022-11-16T02:44:19.782Z,85491.38
2022-11-16T02:46:52.686Z,85487.97
2022-11-16T02:49:23.286Z,85450.31
2022-11-16T02:51:53.256Z,85448.94
2022-11-16T02:54:22.567Z,85499.63
2022-11-16T02:57:04.281Z,85483.84
2022-11-16T02:59:43.715Z,85446.84
2022-11-16T03:02:35.593Z,85478.31
2022-11-16T03:05:09.951Z,85486.59
2022-11-16T03:07:50.991Z,85464.72
2022-11-16T03:10:38.952Z,85468.81
2022-11-16T03:13:12.189Z,85465.44
2022-11-16T03:15:42.171Z,85428.38
2022-11-16T03:18:16.274Z,85464.66
2022-11-16T03:20:44.393Z,85464.69
2022-11-16T03:23:12.955Z,85444.13
2022-11-16T03:25:50.836Z,85459.19
2022-11-16T03:28:27.622Z,85414.00
2022-11-16T03:31:14.840Z,85448.91
2022-11-16T03:33:47.824Z,85415.31
2022-11-16T03:36:23.721Z,85435.84
2022-11-16T03:38:52.967Z,85418.06
2022-11-16T03:41:24.046Z,85422.16
2022-11-16T03:43:52.298Z,85422.09
2022-11-16T03:46:19.460Z,85415.28
2022-11-16T03:48:46.445Z,85419.41
2022-11-16T03:51:21.650Z,85408.44
2022-11-16T03:53:48.585Z,85423.53
2022-11-16T03:56:15.531Z,85433.81
2022-11-16T03:58:42.523Z,85427.66
2022-11-16T04:01:09.605Z,85415.28
2022-11-16T04:03:37.315Z,85416.69
2022-11-16T04:06:22.851Z,85421.47
2022-11-16T04:09:08.256Z,85382.38
2022-11-16T04:11:56.294Z,85402.97
2022-11-16T04:14:43.709Z,85424.91
2022-11-16T04:17:35.015Z,85422.84
2022-11-16T04:20:21.108Z,85425.59
2022-11-16T04:23:11.901Z,85408.44
2022-11-16T04:25:42.016Z,85413.22
2022-11-16T04:28:18.205Z,85415.22
2022-11-16T04:31:24.120Z,85379.63
2022-11-16T04:34:20.949Z,85410.47
2022-11-16T04:37:10.319Z,85363.22
2022-11-16T04:39:38.991Z,85350.22
2022-11-16T04:42:15.526Z,85302.97
2022-11-16T04:45:03.191Z,85351.56
2022-11-16T04:47:43.701Z,85383.78
2022-11-16T04:50:11.484Z,85392.00
2022-11-16T04:52:40.200Z,85392.00
2022-11-16T04:55:10.698Z,85359.81
2022-11-16T04:57:38.402Z,85368.72
2022-11-16T05:00:07.305Z,85362.50
2022-11-16T05:02:36.178Z,85339.28
2022-11-16T05:05:03.362Z,85339.94
2022-11-16T05:07:30.542Z,85374.19
2022-11-16T05:10:07.288Z,85379.66
2022-11-16T05:12:35.212Z,85389.94
2022-11-16T05:15:06.389Z,85349.50
2022-11-16T05:17:34.674Z,85385.81
2022-11-16T05:20:21.917Z,85346.78
2022-11-16T05:22:57.378Z,85335.13
2022-11-16T05:25:30.308Z,85360.44
2022-11-16T05:28:01.573Z,85381.00
2022-11-16T05:30:29.965Z,85355.00
2022-11-16T05:32:59.187Z,85389.25
2022-11-16T05:35:28.170Z,85368.69
2022-11-16T05:37:55.207Z,85389.25
2022-11-16T05:40:22.787Z,85378.97
2022-11-16T05:42:58.258Z,85389.94
2022-11-16T05:45:26.607Z,85334.44
2022-11-16T05:47:53.861Z,85268.78
2022-11-16T05:50:21.116Z,85374.22
2022-11-16T05:53:00.340Z,85389.25
2022-11-16T05:55:30.609Z,85393.31
2022-11-16T05:57:57.723Z,85350.22
2022-11-16T06:00:24.877Z,85355.00
2022-11-16T06:02:53.616Z,85385.13
2022-11-16T06:05:28.499Z,85396.75
2022-11-16T06:07:56.942Z,85358.41
2022-11-16T06:10:24.042Z,85352.94
2022-11-16T06:12:52.759Z,85389.22
2022-11-16T06:15:19.801Z,85382.31
2022-11-16T06:17:47.776Z,85382.31
2022-11-16T06:20:15.955Z,85367.91
2022-11-16T06:22:43.998Z,85361.09
2022-11-16T06:25:11.688Z,85380.94
2022-11-16T06:27:42.229Z,85369.91
2022-11-16T06:30:10.977Z,85274.81
2022-11-16T06:32:40.120Z,85340.50
2022-11-16T06:35:08.593Z,85371.31
2022-11-16T06:37:37.049Z,85369.94
2022-11-16T06:40:04.285Z,85345.25
2022-11-16T06:42:35.568Z,85374.69
2022-11-16T06:45:02.639Z,85378.06
2022-11-16T06:47:36.841Z,85372.63
2022-11-16T06:50:04.948Z,85384.19
2022-11-16T06:52:31.907Z,85382.09
2022-11-16T06:54:58.921Z,85368.28
2022-11-16T06:57:25.875Z,85336.78
2022-11-16T06:59:52.818Z,85318.97
2022-11-16T07:02:21.530Z,85375.06
2022-11-16T07:04:48.987Z,85331.91
2022-11-16T07:07:16.591Z,85335.94
2022-11-16T07:09:45.183Z,85329.03
2022-11-16T07:12:13.850Z,85362.53
2022-11-16T07:14:41.177Z,85366.50
2022-11-16T07:17:09.929Z,85365.03
2022-11-16T07:19:37.545Z,85283.59
2022-11-16T07:22:06.051Z,85360.06
2022-11-16T07:24:33.583Z,85365.47
2022-11-16T07:27:00.552Z,85326.97
2022-11-16T07:29:31.815Z,85364.50
2022-11-16T07:32:17.483Z,85327.47
2022-11-16T07:35:19.617Z,85325.28
2022-11-16T07:37:46.601Z,85346.88
2022-11-16T07:40:15.333Z,85351.59
2022-11-16T07:42:45.463Z,85345.84
2022-11-16T07:45:23.484Z,85328.69
2022-11-16T07:47:58.407Z,85318.25
2022-11-16T07:50:51.576Z,85350.88
2022-11-16T07:53:20.458Z,85342.44
2022-11-16T07:55:54.589Z,85326.63
2022-11-16T07:58:23.793Z,85346.19
2022-11-16T08:00:51.616Z,85324.09
2022-11-16T08:03:24.391Z,85330.03
2022-11-16T08:05:58.376Z,85341.44
2022-11-16T08:08:25.397Z,85363.53
2022-11-16T08:10:52.380Z,85284.56
2022-11-16T08:13:19.366Z,85291.75
2022-11-16T08:15:46.545Z,85327.44
2022-11-16T08:18:13.633Z,85294.59
2022-11-16T08:20:40.701Z,85328.41
2022-11-16T08:23:07.667Z,85319.47
2022-11-16T08:25:35.897Z,85331.53
2022-11-16T08:28:02.963Z,85335.47
2022-11-16T08:30:31.845Z,85321.72
2022-11-16T08:33:00.248Z,85311.16
2022-11-16T08:35:27.226Z,85330.78
2022-11-16T08:37:54.443Z,85325.06
2022-11-16T08:40:21.408Z,85290.84
2022-11-16T08:42:48.613Z,85317.22
2022-11-16T08:45:15.619Z,85302.75
2022-11-16T08:47:42.731Z,85286.41
2022-11-16T08:52:56.511Z,85318.00
2022-11-16T08:55:24.468Z,85314.91
2022-11-16T08:57:51.852Z,85316.19
2022-11-16T09:00:19.222Z,85312.47
2022-11-16T09:02:46.147Z,85296.03
2022-11-16T09:05:13.196Z,85314.09
2022-11-16T09:07:40.905Z,85300.81
2022-11-16T09:10:08.622Z,85308.88
2022-11-16T09:15:21.310Z,85275.59
2022-11-16T09:17:48.207Z,85265.75
2022-11-16T09:20:15.490Z,85269.69
2022-11-16T09:22:42.362Z,85266.88
2022-11-16T09:25:10.332Z,85286.09
2022-11-16T09:27:38.017Z,85289.69
2022-11-16T09:30:05.626Z,85275.25
2022-11-16T09:32:32.544Z,85277.59
2022-11-16T09:34:59.419Z,85269.47
2022-11-16T09:37:26.312Z,85251.00
2022-11-16T09:42:52.687Z,85279.56
2022-11-16T09:45:23.248Z,85254.88
2022-11-16T09:47:56.403Z,85270.06
2022-11-16T09:54:17.052Z,85256.53
2022-11-16T09:56:46.418Z,85245.75
2022-11-16T09:59:25.486Z,85239.88
2022-11-16T10:02:02.287Z,85242.53
2022-11-16T10:04:41.436Z,85236.03
2022-11-16T10:07:15.480Z,85243.75
2022-11-16T10:09:44.619Z,85237.03
2022-11-16T10:12:29.970Z,85237.91
2022-11-16T10:15:07.252Z,85227.41
2022-11-16T10:18:12.551Z,85224.16
2022-11-16T10:20:45.240Z,85224.50
2022-11-16T10:23:37.099Z,85211.06
2022-11-16T10:26:50.449Z,85198.56
2022-11-16T10:29:33.205Z,85188.28
2022-11-16T10:32:18.439Z,85209.22
2022-11-16T10:34:54.072Z,85209.28
2022-11-16T10:37:22.451Z,85192.19
2022-11-16T10:39:53.236Z,85169.66
2022-11-16T10:42:27.661Z,85179.03
2022-11-16T10:45:07.083Z,85185.91
2022-11-16T10:47:52.202Z,85187.59
2022-11-16T10:50:37.841Z,85127.56
2022-11-16T10:53:04.852Z,85157.16
2022-11-16T10:55:31.770Z,85187.72
2022-11-16T10:58:00.281Z,85185.75
2022-11-16T11:00:56.561Z,85181.28
2022-11-16T11:03:31.767Z,85182.44
2022-11-16T11:05:58.873Z,85158.47
2022-11-16T11:08:31.058Z,85109.56
2022-11-16T11:11:24.828Z,85176.22
2022-11-16T11:14:15.771Z,85177.34
2022-11-16T11:16:42.705Z,85153.84
2022-11-16T11:19:27.774Z,85133.59
2022-11-16T11:21:59.913Z,85165.28
2022-11-16T11:24:45.268Z,85145.25
2022-11-16T11:27:12.583Z,85112.88
2022-11-16T11:29:43.094Z,85132.88
2022-11-16T11:32:23.848Z,85156.72
2022-11-16T11:34:54.038Z,85147.31
2022-11-16T11:37:30.728Z,85132.59
2022-11-16T11:42:59.707Z,85138.09
2022-11-16T11:46:07.979Z,85137.69
2022-11-16T11:48:35.720Z,85142.44
2022-11-16T11:51:22.455Z,85126.72
2022-11-16T11:53:56.280Z,85103.56
2022-11-16T11:56:24.474Z,85090.72
2022-11-16T11:58:52.048Z,85109.69
2022-11-16T12:01:25.225Z,85125.94
2022-11-16T12:04:10.694Z,85136.06
2022-11-16T12:07:13.279Z,85119.00
2022-11-16T12:09:56.181Z,85139.22
2022-11-16T12:12:34.986Z,85130.69
2022-11-16T12:15:07.914Z,85129.34
2022-11-16T12:18:00.855Z,85133.53
2022-11-16T12:20:39.878Z,85130.16
2022-11-16T12:23:15.765Z,85128.94
2022-11-16T12:25:57.852Z,85131.56
2022-11-16T12:28:51.008Z,85104.44
2022-11-16T12:31:24.344Z,85122.00
2022-11-16T12:34:11.487Z,85133.84
2022-11-16T12:36:59.950Z,85127.84
2022-11-16T12:39:40.631Z,85132.69
2022-11-16T12:42:22.090Z,85086.31
2022-11-16T12:44:54.967Z,85126.41
2022-11-16T12:47:52.804Z,85107.44
2022-11-16T12:50:41.185Z,85125.72
2022-11-16T12:53:19.914Z,85120.84
2022-11-16T12:56:14.779Z,85125.97
2022-11-16T12:58:47.538Z,85129.44
2022-11-16T13:01:30.238Z,85117.09
2022-11-16T13:04:13.574Z,85131.34
2022-11-16T13:06:47.015Z,85104.19
2022-11-16T13:09:21.832Z,85102.66
2022-11-16T13:11:58.290Z,85133.91
2022-11-16T13:14:32.915Z,85132.59
2022-11-16T13:17:02.704Z,85132.97
2022-11-16T13:19:30.295Z,85103.63
2022-11-16T13:22:09.835Z,85126.34
2022-11-16T13:25:12.975Z,85117.53
2022-11-16T13:27:53.697Z,85121.84
2022-11-16T13:30:23.452Z,85122.25
2022-11-16T13:33:23.384Z,85117.28
2022-11-16T13:35:51.766Z,85105.00
2022-11-16T13:38:52.629Z,85121.25
2022-11-16T13:41:31.449Z,85114.91
2022-11-16T13:43:58.892Z,85114.50
2022-11-16T13:46:55.289Z,85110.44
2022-11-16T13:49:31.985Z,85116.00
2022-11-16T13:52:22.051Z,85110.44
2022-11-16T13:54:55.689Z,85129.28
2022-11-16T13:57:31.059Z,85088.59
2022-11-16T14:00:00.925Z,85125.63
2022-11-16T14:02:32.480Z,85119.63
2022-11-16T14:05:02.256Z,85116.25
2022-11-16T14:07:44.903Z,85097.69
2022-11-16T14:10:32.475Z,85091.16
2022-11-16T14:13:04.537Z,85076.31
2022-11-16T14:15:38.817Z,85091.56
2022-11-16T14:18:09.299Z,85109.47
2022-11-16T14:20:54.810Z,85083.56
2022-11-16T14:23:49.634Z,85116.78
2022-11-16T14:26:22.631Z,85093.31
2022-11-16T14:29:26.688Z,85109.53
2022-11-16T14:32:03.184Z,85115.03
2022-11-16T14:34:46.023Z,85087.53
2022-11-16T14:37:21.680Z,85118.81
2022-11-16T14:39:50.590Z,85127.31
2022-11-16T14:42:18.948Z,85122.38
2022-11-16T14:44:47.279Z,85111.16
2022-11-16T14:47:28.810Z,85127.94
2022-11-16T14:49:56.433Z,85122.44
2022-11-16T14:52:40.507Z,84977.44
2022-11-16T14:55:10.259Z,85122.81
2022-11-16T14:57:37.182Z,85110.22
2022-11-16T15:00:24.803Z,85088.66
2022-11-16T15:03:02.094Z,85096.38
2022-11-16T15:05:34.653Z,85118.00
2022-11-16T15:08:15.114Z,85122.50
2022-11-16T15:10:52.016Z,85131.69
2022-11-16T15:13:22.907Z,85093.78
2022-11-16T15:15:52.805Z,85101.91
2022-11-16T15:18:23.274Z,85131.13
2022-11-16T15:20:52.151Z,85127.25
2022-11-16T15:23:20.453Z,85078.25
2022-11-16T15:25:55.795Z,85060.38
2022-11-16T15:28:26.211Z,85127.88
2022-11-16T15:31:01.932Z,85137.13
2022-11-16T15:33:32.554Z,85136.75
2022-11-16T15:35:59.854Z,85126.78
2022-11-16T15:38:29.410Z,85106.59
2022-11-16T15:40:59.521Z,85133.06
2022-11-16T15:43:49.743Z,85143.44
2022-11-16T15:46:29.440Z,85139.00
2022-11-16T15:48:57.235Z,85153.50
2022-11-16T15:51:24.362Z,85124.16
2022-11-16T15:53:53.981Z,85146.06
2022-11-16T15:56:26.899Z,85136.59
2022-11-16T15:59:09.554Z,85122.25
2022-11-16T16:01:45.448Z,85088.03
2022-11-16T16:04:17.425Z,85127.19
2022-11-16T16:06:48.886Z,85122.69
2022-11-16T16:09:25.111Z,85129.94
2022-11-16T16:12:11.093Z,85098.53
2022-11-16T16:14:38.635Z,85112.25
2022-11-16T16:17:05.571Z,85095.03
2022-11-16T16:19:55.551Z,85136.72
2022-11-16T16:22:37.185Z,85117.94
2022-11-16T16:25:06.296Z,85124.56
2022-11-16T16:27:39.938Z,85120.34
2022-11-16T16:30:08.705Z,85131.13
2022-11-16T16:32:37.966Z,85124.28
2022-11-16T16:35:07.612Z,85124.13
2022-11-16T16:37:38.689Z,85108.25
2022-11-16T16:40:06.267Z,85092.00
2022-11-16T16:42:33.159Z,85117.88
2022-11-16T16:45:00.635Z,85094.34
2022-11-16T16:47:27.681Z,85112.69
2022-11-16T16:49:54.685Z,85109.72
2022-11-16T16:52:21.649Z,85119.69
2022-11-16T16:54:48.528Z,85128.06
2022-11-16T16:57:16.853Z,85076.22
2022-11-16T16:59:48.673Z,85082.44
2022-11-16T17:02:16.458Z,85077.81
2022-11-16T17:04:44.176Z,85109.84
2022-11-16T17:07:11.154Z,85131.50
2022-11-16T17:09:38.268Z,85130.81
2022-11-16T17:12:05.422Z,85126.44
2022-11-16T17:14:32.380Z,85114.78
2022-11-16T17:17:00.235Z,85112.56
2022-11-16T17:19:28.549Z,85122.28
2022-11-16T17:21:55.512Z,85120.88
2022-11-16T17:24:22.527Z,85114.09
2022-11-16T17:26:50.643Z,85102.56
2022-11-16T17:29:17.647Z,85117.63
2022-11-16T17:31:47.697Z,85081.41
2022-11-16T17:34:14.713Z,85109.94
2022-11-16T17:36:42.709Z,85074.84
2022-11-16T17:39:09.653Z,85092.56
2022-11-16T17:41:37.118Z,85116.75
2022-11-16T17:44:04.777Z,85119.34
2022-11-16T17:46:31.780Z,85113.19
2022-11-16T17:48:58.825Z,85070.69
2022-11-16T17:51:26.150Z,85080.31
2022-11-16T17:53:53.362Z,85082.50
2022-11-16T17:56:22.708Z,85115.88
2022-11-16T17:58:52.714Z,85073.75
2022-11-16T18:01:19.726Z,85118.66
2022-11-16T18:03:46.943Z,85084.50
2022-11-16T18:06:19.432Z,85107.59
2022-11-16T18:08:47.125Z,85112.41
2022-11-16T18:11:22.902Z,85113.09
2022-11-16T18:13:56.024Z,85083.47
2022-11-16T18:16:25.467Z,85098.94
2022-11-16T18:18:57.953Z,85099.59
2022-11-16T18:21:25.789Z,85091.50
2022-11-16T18:23:53.078Z,85101.53
2022-11-16T18:26:22.516Z,85056.69
2022-11-16T18:28:51.128Z,85072.88
2022-11-16T18:31:20.500Z,85085.56
2022-11-16T18:33:49.330Z,85101.19
2022-11-16T18:36:17.251Z,85096.78
2022-11-16T18:38:44.258Z,85109.75
2022-11-16T18:41:13.796Z,85104.88
2022-11-16T18:43:42.514Z,85066.63
2022-11-16T18:46:09.558Z,85080.03
2022-11-16T18:48:36.510Z,85063.72
2022-11-16T18:51:04.862Z,85086.22
2022-11-16T18:53:33.062Z,85084.66
2022-11-16T18:56:00.377Z,85119.78
2022-11-16T19:01:17.102Z,85103.88
2022-11-16T19:03:44.305Z,85064.50
2022-11-16T19:06:12.299Z,85107.44
2022-11-16T19:08:41.416Z,85084.47
2022-11-16T19:11:11.749Z,85106.19
2022-11-16T19:13:42.900Z,85104.88
2022-11-16T19:16:12.014Z,85076.38
2022-11-16T19:18:39.020Z,85087.28
2022-11-16T19:21:24.465Z,85088.94
2022-11-16T19:23:53.608Z,85077.13
2022-11-16T19:26:23.697Z,85108.09
2022-11-16T19:28:51.773Z,85098.66
2022-11-16T19:31:21.441Z,85104.09
2022-11-16T19:33:52.769Z,85108.47
2022-11-16T19:36:20.017Z,85090.09
2022-11-16T19:38:48.417Z,85099.75
2022-11-16T19:41:16.772Z,85106.28
2022-11-16T19:43:43.981Z,85108.88
2022-11-16T19:46:13.372Z,85114.19
2022-11-16T19:48:40.348Z,85089.81
2022-11-16T19:51:16.211Z,85100.50
2022-11-16T19:53:43.443Z,85107.91
2022-11-16T19:56:12.559Z,85096.06
2022-11-16T19:58:39.764Z,85073.22
2022-11-16T20:01:10.383Z,85073.09
2022-11-16T20:03:38.659Z,85054.53
2022-11-16T20:06:17.444Z,85067.38
2022-11-16T20:08:48.946Z,85064.41
2022-11-16T20:11:26.434Z,85090.16
2022-11-16T20:13:55.237Z,85049.53
2022-11-16T20:16:30.691Z,85091.69
2022-11-16T20:19:01.390Z,85071.25
2022-11-16T20:21:35.630Z,85092.13
2022-11-16T20:24:06.696Z,85095.50
2022-11-16T20:26:35.565Z,85093.13
2022-11-16T20:29:03.024Z,85079.22
2022-11-16T20:31:31.611Z,85080.56
2022-11-16T20:34:01.158Z,85057.69
2022-11-16T20:36:30.262Z,85052.00
2022-11-16T20:38:59.299Z,85085.97
2022-11-16T20:41:30.957Z,85068.28
2022-11-16T20:44:00.264Z,85069.78
2022-11-16T20:46:30.253Z,85078.84
2022-11-16T20:48:59.505Z,85062.84
2022-11-16T20:51:27.824Z,85048.25
2022-11-16T20:53:54.634Z,85045.94
2022-11-16T20:56:21.924Z,85036.47
2022-11-16T20:58:49.559Z,85038.41
2022-11-16T21:01:19.752Z,85064.31
2022-11-16T21:03:47.143Z,85064.88
2022-11-16T21:06:15.324Z,85053.00
2022-11-16T21:08:42.475Z,85028.22
2022-11-16T21:11:14.519Z,85056.56
2022-11-16T21:14:00.162Z,84972.72
2022-11-16T21:16:27.114Z,85017.16
2022-11-16T21:18:55.677Z,85040.84
2022-11-16T21:21:22.798Z,85027.88
2022-11-16T21:23:53.841Z,85020.31
2022-11-16T21:26:26.640Z,85008.22
2022-11-16T21:28:53.999Z,85016.03
2022-11-16T21:31:25.673Z,84959.47
2022-11-16T21:33:54.024Z,85028.91
2022-11-16T21:36:23.752Z,84992.94
2022-11-16T21:38:52.132Z,85009.94
2022-11-16T21:41:20.791Z,85035.41
2022-11-16T21:43:47.644Z,85047.56
2022-11-16T21:46:16.578Z,85050.22
2022-11-16T21:48:44.253Z,85023.78
2022-11-16T21:51:13.638Z,85016.31
2022-11-16T21:53:40.705Z,85045.34
2022-11-16T21:56:11.569Z,85012.28
2022-11-16T21:58:42.240Z,85041.22
2022-11-16T22:01:11.403Z,84992.03
2022-11-16T22:03:38.770Z,85020.47
2022-11-16T22:06:25.883Z,85016.91
2022-11-16T22:08:53.001Z,85000.41
2022-11-16T22:11:22.398Z,85022.16
2022-11-16T22:13:50.194Z,85027.69
2022-11-16T22:16:18.925Z,85023.25
2022-11-16T22:18:45.799Z,85020.88
2022-11-16T22:21:12.827Z,85037.09
2022-11-16T22:23:40.332Z,85027.41
2022-11-16T22:26:10.468Z,85019.22
2022-11-16T22:28:38.006Z,84997.53
2022-11-16T22:31:17.638Z,84998.75
2022-11-16T22:33:44.431Z,84983.97
2022-11-16T22:36:11.964Z,85016.38
2022-11-16T22:38:38.912Z,85009.56
2022-11-16T22:41:05.962Z,85009.56
2022-11-16T22:43:33.415Z,85005.41
2022-11-16T22:46:02.538Z,85006.16
2022-11-16T22:48:40.233Z,85004.22
2022-11-16T22:51:12.290Z,84998.66
2022-11-16T22:53:39.276Z,84979.47
2022-11-16T22:56:08.249Z,85004.03
2022-11-16T22:58:36.372Z,84986.47
2022-11-16T23:01:04.329Z,84968.97
2022-11-16T23:03:31.747Z,84977.06
2022-11-16T23:05:59.732Z,84974.34
2022-11-16T23:08:27.307Z,84975.75
2022-11-16T23:11:23.051Z,84998.59
2022-11-16T23:14:09.079Z,84998.81
2022-11-16T23:16:36.820Z,84967.34
2022-11-16T23:19:03.949Z,84981.25
2022-11-16T23:21:49.394Z,84983.88
2022-11-16T23:24:35.946Z,84964.88
2022-11-16T23:27:22.580Z,84957.69
2022-11-16T23:29:49.848Z,84961.50
2022-11-16T23:32:16.746Z,84984.06
2022-11-16T23:34:43.565Z,84965.63
2022-11-16T23:37:10.486Z,84949.25
2022-11-16T23:39:37.364Z,84960.59
2022-11-16T23:42:23.062Z,84963.34
2022-11-16T23:44:49.993Z,84926.75
2022-11-16T23:47:16.907Z,84930.44
2022-11-16T23:49:43.788Z,84939.38
2022-11-16T23:52:12.181Z,84952.94
2022-11-16T23:54:39.328Z,84931.03
2022-11-16T23:57:06.553Z,84936.34
2022-11-16T23:59:33.506Z,84965.66
